sensor_id;sensor_type;location;lat;lon;timestamp;temperature;humidity
22532;DHT22;11432;46.924;7.114;2022-07-29T00:02:13;19.60;99.90
22532;DHT22;11432;46.924;7.114;2022-07-29T00:04:39;19.50;99.90
22532;DHT22;11432;46.924;7.114;2022-07-29T00:07:05;19.60;99.90
22532;DHT22;11432;46.924;7.114;2022-07-29T00:09:31;19.60;99.90
22532;DHT22;11432;46.924;7.114;2022-07-29T00:11:59;19.60;99.90
22532;DHT22;11432;46.924;7.114;2022-07-29T00:14:26;19.70;99.90
22532;DHT22;11432;46.924;7.114;2022-07-29T00:16:52;19.70;99.90
22532;DHT22;11432;46.924;7.114;2022-07-29T00:19:17;19.70;99.90
22532;DHT22;11432;46.924;7.114;2022-07-29T00:21:43;19.60;99.90
22532;DHT22;11432;46.924;7.114;2022-07-29T00:24:09;19.50;99.90
22532;DHT22;11432;46.924;7.114;2022-07-29T00:26:35;19.40;99.90
22532;DHT22;11432;46.924;7.114;2022-07-29T00:29:02;19.40;99.90
22532;DHT22;11432;46.924;7.114;2022-07-29T00:31:28;19.40;99.90
22532;DHT22;11432;46.924;7.114;2022-07-29T00:33:54;19.50;99.90
22532;DHT22;11432;46.924;7.114;2022-07-29T00:36:21;19.40;99.90
22532;DHT22;11432;46.924;7.114;2022-07-29T00:38:50;19.50;99.90
22532;DHT22;11432;46.924;7.114;2022-07-29T00:41:17;19.40;99.90
22532;DHT22;11432;46.924;7.114;2022-07-29T00:43:44;19.40;99.90
22532;DHT22;11432;46.924;7.114;2022-07-29T00:46:10;19.40;99.90
22532;DHT22;11432;46.924;7.114;2022-07-29T00:48:36;19.50;99.90
22532;DHT22;11432;46.924;7.114;2022-07-29T00:51:04;19.60;99.90
22532;DHT22;11432;46.924;7.114;2022-07-29T00:53:31;19.50;99.90
22532;DHT22;11432;46.924;7.114;2022-07-29T00:55:58;19.50;99.90
22532;DHT22;11432;46.924;7.114;2022-07-29T00:58:24;19.50;99.90
22532;DHT22;11432;46.924;7.114;2022-07-29T01:00:50;19.50;99.90
22532;DHT22;11432;46.924;7.114;2022-07-29T01:03:16;19.40;99.90
22532;DHT22;11432;46.924;7.114;2022-07-29T01:05:43;19.50;99.90
22532;DHT22;11432;46.924;7.114;2022-07-29T01:08:11;19.60;99.90
22532;DHT22;11432;46.924;7.114;2022-07-29T01:10:39;19.50;99.90
22532;DHT22;11432;46.924;7.114;2022-07-29T01:13:07;19.50;99.90
22532;DHT22;11432;46.924;7.114;2022-07-29T01:15:38;19.50;99.90
22532;DHT22;11432;46.924;7.114;2022-07-29T01:18:22;19.50;99.90
22532;DHT22;11432;46.924;7.114;2022-07-29T01:26:57;19.50;99.90
22532;DHT22;11432;46.924;7.114;2022-07-29T01:29:33;19.50;99.90
22532;DHT22;11432;46.924;7.114;2022-07-29T01:35:02;19.60;99.90
22532;DHT22;11432;46.924;7.114;2022-07-29T01:37:52;19.60;99.90
22532;DHT22;11432;46.924;7.114;2022-07-29T01:40:36;19.50;99.90
22532;DHT22;11432;46.924;7.114;2022-07-29T01:43:27;19.50;99.90
22532;DHT22;11432;46.924;7.114;2022-07-29T01:46:00;19.50;99.90
22532;DHT22;11432;46.924;7.114;2022-07-29T01:53:50;19.30;99.90
22532;DHT22;11432;46.924;7.114;2022-07-29T01:56:20;19.30;99.90
22532;DHT22;11432;46.924;7.114;2022-07-29T01:58:47;19.40;99.90
22532;DHT22;11432;46.924;7.114;2022-07-29T02:01:14;19.40;99.90
22532;DHT22;11432;46.924;7.114;2022-07-29T02:03:43;19.50;99.90
22532;DHT22;11432;46.924;7.114;2022-07-29T02:06:11;19.50;99.90
22532;DHT22;11432;46.924;7.114;2022-07-29T02:08:38;19.30;99.90
22532;DHT22;11432;46.924;7.114;2022-07-29T02:11:05;19.20;99.90
22532;DHT22;11432;46.924;7.114;2022-07-29T02:13:34;19.30;99.90
22532;DHT22;11432;46.924;7.114;2022-07-29T02:16:03;19.30;99.90
22532;DHT22;11432;46.924;7.114;2022-07-29T02:18:30;19.30;99.90
22532;DHT22;11432;46.924;7.114;2022-07-29T02:20:56;19.30;99.90
22532;DHT22;11432;46.924;7.114;2022-07-29T02:23:25;19.20;99.90
22532;DHT22;11432;46.924;7.114;2022-07-29T02:25:53;19.10;99.90
22532;DHT22;11432;46.924;7.114;2022-07-29T02:28:20;19.10;99.90
22532;DHT22;11432;46.924;7.114;2022-07-29T02:30:48;19.00;99.90
22532;DHT22;11432;46.924;7.114;2022-07-29T02:33:17;19.00;99.90
22532;DHT22;11432;46.924;7.114;2022-07-29T02:35:45;19.00;99.90
22532;DHT22;11432;46.924;7.114;2022-07-29T02:38:14;19.00;99.90
22532;DHT22;11432;46.924;7.114;2022-07-29T02:41:01;18.90;99.90
22532;DHT22;11432;46.924;7.114;2022-07-29T02:43:27;18.70;99.90
22532;DHT22;11432;46.924;7.114;2022-07-29T02:45:54;18.70;99.90
22532;DHT22;11432;46.924;7.114;2022-07-29T02:48:36;18.70;99.90
22532;DHT22;11432;46.924;7.114;2022-07-29T02:51:08;18.80;99.90
22532;DHT22;11432;46.924;7.114;2022-07-29T02:53:38;18.70;99.90
22532;DHT22;11432;46.924;7.114;2022-07-29T02:56:11;18.70;99.90
22532;DHT22;11432;46.924;7.114;2022-07-29T02:58:44;18.80;99.90
22532;DHT22;11432;46.924;7.114;2022-07-29T03:01:14;18.80;99.90
22532;DHT22;11432;46.924;7.114;2022-07-29T03:03:43;19.00;99.90
22532;DHT22;11432;46.924;7.114;2022-07-29T03:06:12;18.90;99.90
22532;DHT22;11432;46.924;7.114;2022-07-29T03:08:39;18.90;99.90
22532;DHT22;11432;46.924;7.114;2022-07-29T03:11:05;18.90;99.90
22532;DHT22;11432;46.924;7.114;2022-07-29T03:13:31;19.00;99.90
22532;DHT22;11432;46.924;7.114;2022-07-29T03:15:57;19.10;99.90
22532;DHT22;11432;46.924;7.114;2022-07-29T03:18:24;19.10;99.90
22532;DHT22;11432;46.924;7.114;2022-07-29T03:20:51;19.10;99.90
22532;DHT22;11432;46.924;7.114;2022-07-29T03:23:21;19.00;99.90
22532;DHT22;11432;46.924;7.114;2022-07-29T03:25:48;19.10;99.90
22532;DHT22;11432;46.924;7.114;2022-07-29T03:28:14;18.90;99.90
22532;DHT22;11432;46.924;7.114;2022-07-29T03:30:40;18.80;99.90
22532;DHT22;11432;46.924;7.114;2022-07-29T03:33:06;18.70;99.90
22532;DHT22;11432;46.924;7.114;2022-07-29T03:35:31;18.80;99.90
22532;DHT22;11432;46.924;7.114;2022-07-29T03:37:58;18.80;99.90
22532;DHT22;11432;46.924;7.114;2022-07-29T03:40:45;18.80;99.90
22532;DHT22;11432;46.924;7.114;2022-07-29T03:43:13;18.80;99.90
22532;DHT22;11432;46.924;7.114;2022-07-29T03:45:43;18.90;99.90
22532;DHT22;11432;46.924;7.114;2022-07-29T03:48:12;18.90;99.90
22532;DHT22;11432;46.924;7.114;2022-07-29T03:50:39;18.90;99.90
22532;DHT22;11432;46.924;7.114;2022-07-29T03:53:04;18.80;99.90
22532;DHT22;11432;46.924;7.114;2022-07-29T03:55:32;18.80;99.90
22532;DHT22;11432;46.924;7.114;2022-07-29T03:57:58;18.80;99.90
22532;DHT22;11432;46.924;7.114;2022-07-29T04:00:25;18.80;99.90
22532;DHT22;11432;46.924;7.114;2022-07-29T04:02:52;18.80;99.90
22532;DHT22;11432;46.924;7.114;2022-07-29T04:05:18;18.80;99.90
22532;DHT22;11432;46.924;7.114;2022-07-29T04:07:44;18.70;99.90
22532;DHT22;11432;46.924;7.114;2022-07-29T04:10:09;18.70;99.90
22532;DHT22;11432;46.924;7.114;2022-07-29T04:12:35;18.70;99.90
22532;DHT22;11432;46.924;7.114;2022-07-29T04:15:02;18.60;99.90
22532;DHT22;11432;46.924;7.114;2022-07-29T04:17:27;18.50;99.90
22532;DHT22;11432;46.924;7.114;2022-07-29T04:19:53;18.70;99.90
22532;DHT22;11432;46.924;7.114;2022-07-29T04:22:19;18.70;99.90
22532;DHT22;11432;46.924;7.114;2022-07-29T04:24:44;18.60;99.90
22532;DHT22;11432;46.924;7.114;2022-07-29T04:27:10;18.60;99.90
22532;DHT22;11432;46.924;7.114;2022-07-29T04:29:35;18.70;99.90
22532;DHT22;11432;46.924;7.114;2022-07-29T04:32:01;18.80;99.90
22532;DHT22;11432;46.924;7.114;2022-07-29T04:34:26;18.80;99.90
22532;DHT22;11432;46.924;7.114;2022-07-29T04:36:52;18.80;99.90
22532;DHT22;11432;46.924;7.114;2022-07-29T04:39:17;18.90;99.90
22532;DHT22;11432;46.924;7.114;2022-07-29T04:41:44;18.70;99.90
22532;DHT22;11432;46.924;7.114;2022-07-29T04:44:09;18.80;99.90
22532;DHT22;11432;46.924;7.114;2022-07-29T04:46:35;18.80;99.90
22532;DHT22;11432;46.924;7.114;2022-07-29T04:49:01;18.70;99.90
22532;DHT22;11432;46.924;7.114;2022-07-29T04:51:27;18.90;99.90
22532;DHT22;11432;46.924;7.114;2022-07-29T04:53:52;18.70;99.90
22532;DHT22;11432;46.924;7.114;2022-07-29T04:56:18;18.70;99.90
22532;DHT22;11432;46.924;7.114;2022-07-29T04:58:43;18.80;99.90
22532;DHT22;11432;46.924;7.114;2022-07-29T05:01:09;18.80;99.90
22532;DHT22;11432;46.924;7.114;2022-07-29T05:03:34;18.90;99.90
22532;DHT22;11432;46.924;7.114;2022-07-29T05:06:00;18.90;99.90
22532;DHT22;11432;46.924;7.114;2022-07-29T05:08:25;18.90;99.90
22532;DHT22;11432;46.924;7.114;2022-07-29T05:10:51;19.00;99.90
22532;DHT22;11432;46.924;7.114;2022-07-29T05:13:16;19.10;99.90
22532;DHT22;11432;46.924;7.114;2022-07-29T05:15:42;18.90;99.90
22532;DHT22;11432;46.924;7.114;2022-07-29T05:18:07;18.80;99.90
22532;DHT22;11432;46.924;7.114;2022-07-29T05:20:33;18.80;99.90
22532;DHT22;11432;46.924;7.114;2022-07-29T05:23:00;18.70;99.90
22532;DHT22;11432;46.924;7.114;2022-07-29T05:25:26;18.80;99.90
22532;DHT22;11432;46.924;7.114;2022-07-29T05:27:52;18.80;99.90
22532;DHT22;11432;46.924;7.114;2022-07-29T05:30:18;18.90;99.90
22532;DHT22;11432;46.924;7.114;2022-07-29T05:32:43;18.90;99.90
22532;DHT22;11432;46.924;7.114;2022-07-29T05:35:09;18.90;99.90
22532;DHT22;11432;46.924;7.114;2022-07-29T05:37:35;18.80;99.90
22532;DHT22;11432;46.924;7.114;2022-07-29T05:40:00;18.80;99.90
22532;DHT22;11432;46.924;7.114;2022-07-29T05:42:26;18.80;99.90
22532;DHT22;11432;46.924;7.114;2022-07-29T05:44:52;18.90;99.90
22532;DHT22;11432;46.924;7.114;2022-07-29T05:47:17;18.90;99.90
22532;DHT22;11432;46.924;7.114;2022-07-29T05:49:43;18.90;99.90
22532;DHT22;11432;46.924;7.114;2022-07-29T05:52:09;18.90;99.90
22532;DHT22;11432;46.924;7.114;2022-07-29T05:54:34;19.10;99.90
22532;DHT22;11432;46.924;7.114;2022-07-29T05:57:00;19.20;99.90
22532;DHT22;11432;46.924;7.114;2022-07-29T05:59:26;19.40;99.90
22532;DHT22;11432;46.924;7.114;2022-07-29T06:01:51;19.50;99.90
22532;DHT22;11432;46.924;7.114;2022-07-29T06:04:17;19.60;99.90
22532;DHT22;11432;46.924;7.114;2022-07-29T06:06:42;19.60;99.90
22532;DHT22;11432;46.924;7.114;2022-07-29T06:09:08;19.70;99.90
22532;DHT22;11432;46.924;7.114;2022-07-29T06:11:34;19.90;99.90
22532;DHT22;11432;46.924;7.114;2022-07-29T06:13:59;19.80;99.90
22532;DHT22;11432;46.924;7.114;2022-07-29T06:16:25;19.60;99.90
22532;DHT22;11432;46.924;7.114;2022-07-29T06:18:50;19.50;99.90
22532;DHT22;11432;46.924;7.114;2022-07-29T06:21:16;19.50;99.90
22532;DHT22;11432;46.924;7.114;2022-07-29T06:23:41;19.50;99.90
22532;DHT22;11432;46.924;7.114;2022-07-29T06:26:07;19.50;99.90
22532;DHT22;11432;46.924;7.114;2022-07-29T06:28:33;19.50;99.90
22532;DHT22;11432;46.924;7.114;2022-07-29T06:30:59;19.50;99.90
22532;DHT22;11432;46.924;7.114;2022-07-29T06:33:25;19.60;99.90
22532;DHT22;11432;46.924;7.114;2022-07-29T06:35:50;19.70;99.90
22532;DHT22;11432;46.924;7.114;2022-07-29T06:38:16;19.80;99.90
22532;DHT22;11432;46.924;7.114;2022-07-29T06:40:42;19.90;99.90
22532;DHT22;11432;46.924;7.114;2022-07-29T06:43:34;19.90;94.70
22532;DHT22;11432;46.924;7.114;2022-07-29T06:46:03;20.10;98.90
22532;DHT22;11432;46.924;7.114;2022-07-29T06:48:29;20.10;99.90
22532;DHT22;11432;46.924;7.114;2022-07-29T06:50:54;20.00;85.40
22532;DHT22;11432;46.924;7.114;2022-07-29T06:53:20;20.10;34.50
22532;DHT22;11432;46.924;7.114;2022-07-29T06:55:45;20.30;1.00
22532;DHT22;11432;46.924;7.114;2022-07-29T06:58:11;20.40;14.00
22532;DHT22;11432;46.924;7.114;2022-07-29T07:00:37;20.50;1.00
22532;DHT22;11432;46.924;7.114;2022-07-29T07:03:03;20.40;1.00
22532;DHT22;11432;46.924;7.114;2022-07-29T07:05:28;20.60;1.00
22532;DHT22;11432;46.924;7.114;2022-07-29T07:07:54;20.70;1.00
22532;DHT22;11432;46.924;7.114;2022-07-29T07:10:19;20.80;1.00
22532;DHT22;11432;46.924;7.114;2022-07-29T07:12:44;20.80;1.00
22532;DHT22;11432;46.924;7.114;2022-07-29T07:15:10;20.90;1.00
22532;DHT22;11432;46.924;7.114;2022-07-29T07:17:36;21.00;1.00
22532;DHT22;11432;46.924;7.114;2022-07-29T07:20:03;21.00;1.00
22532;DHT22;11432;46.924;7.114;2022-07-29T07:22:30;20.80;1.00
22532;DHT22;11432;46.924;7.114;2022-07-29T07:24:55;20.80;1.00
22532;DHT22;11432;46.924;7.114;2022-07-29T07:27:21;21.00;1.00
22532;DHT22;11432;46.924;7.114;2022-07-29T07:29:46;21.00;1.00
22532;DHT22;11432;46.924;7.114;2022-07-29T07:32:12;21.00;1.00
22532;DHT22;11432;46.924;7.114;2022-07-29T07:34:38;21.20;1.00
22532;DHT22;11432;46.924;7.114;2022-07-29T07:37:04;21.40;1.00
22532;DHT22;11432;46.924;7.114;2022-07-29T07:39:29;21.40;1.00
22532;DHT22;11432;46.924;7.114;2022-07-29T07:41:55;21.60;1.00
22532;DHT22;11432;46.924;7.114;2022-07-29T07:44:20;21.70;1.00
22532;DHT22;11432;46.924;7.114;2022-07-29T07:46:46;21.80;1.00
22532;DHT22;11432;46.924;7.114;2022-07-29T07:49:11;21.80;1.00
22532;DHT22;11432;46.924;7.114;2022-07-29T07:51:37;21.80;1.00
22532;DHT22;11432;46.924;7.114;2022-07-29T07:54:03;21.60;1.00
22532;DHT22;11432;46.924;7.114;2022-07-29T07:56:29;21.60;1.00
22532;DHT22;11432;46.924;7.114;2022-07-29T07:58:54;21.80;1.00
22532;DHT22;11432;46.924;7.114;2022-07-29T08:01:20;21.90;1.00
22532;DHT22;11432;46.924;7.114;2022-07-29T08:03:48;21.90;1.00
22532;DHT22;11432;46.924;7.114;2022-07-29T08:06:14;22.00;1.00
22532;DHT22;11432;46.924;7.114;2022-07-29T08:08:39;22.20;1.00
22532;DHT22;11432;46.924;7.114;2022-07-29T08:11:05;22.50;1.00
22532;DHT22;11432;46.924;7.114;2022-07-29T08:13:31;22.80;1.00
22532;DHT22;11432;46.924;7.114;2022-07-29T08:15:57;23.00;1.00
22532;DHT22;11432;46.924;7.114;2022-07-29T08:18:23;22.40;1.00
22532;DHT22;11432;46.924;7.114;2022-07-29T08:20:49;22.30;1.00
22532;DHT22;11432;46.924;7.114;2022-07-29T08:23:15;22.20;1.00
22532;DHT22;11432;46.924;7.114;2022-07-29T08:25:41;22.10;1.00
22532;DHT22;11432;46.924;7.114;2022-07-29T08:28:07;22.10;1.00
22532;DHT22;11432;46.924;7.114;2022-07-29T08:30:32;21.90;1.00
22532;DHT22;11432;46.924;7.114;2022-07-29T08:32:58;21.80;1.00
22532;DHT22;11432;46.924;7.114;2022-07-29T08:35:24;21.90;1.00
22532;DHT22;11432;46.924;7.114;2022-07-29T08:37:50;22.00;1.00
22532;DHT22;11432;46.924;7.114;2022-07-29T08:40:15;22.00;1.00
22532;DHT22;11432;46.924;7.114;2022-07-29T08:42:41;22.10;1.00
22532;DHT22;11432;46.924;7.114;2022-07-29T08:45:07;22.20;1.00
22532;DHT22;11432;46.924;7.114;2022-07-29T08:47:33;22.50;1.00
22532;DHT22;11432;46.924;7.114;2022-07-29T08:49:58;22.80;1.00
22532;DHT22;11432;46.924;7.114;2022-07-29T08:52:25;23.00;1.00
22532;DHT22;11432;46.924;7.114;2022-07-29T08:54:50;23.20;1.00
22532;DHT22;11432;46.924;7.114;2022-07-29T08:57:17;23.50;1.00
22532;DHT22;11432;46.924;7.114;2022-07-29T08:59:43;23.50;1.00
22532;DHT22;11432;46.924;7.114;2022-07-29T09:02:14;23.40;1.00
22532;DHT22;11432;46.924;7.114;2022-07-29T09:04:41;23.60;1.00
22532;DHT22;11432;46.924;7.114;2022-07-29T09:07:06;23.40;1.00
22532;DHT22;11432;46.924;7.114;2022-07-29T09:09:33;23.30;1.00
22532;DHT22;11432;46.924;7.114;2022-07-29T09:11:59;23.30;1.00
22532;DHT22;11432;46.924;7.114;2022-07-29T09:14:25;22.90;1.00
22532;DHT22;11432;46.924;7.114;2022-07-29T09:16:54;22.70;1.00
22532;DHT22;11432;46.924;7.114;2022-07-29T09:19:20;22.50;1.00
22532;DHT22;11432;46.924;7.114;2022-07-29T09:21:46;22.30;1.00
22532;DHT22;11432;46.924;7.114;2022-07-29T09:26:59;22.20;1.00
22532;DHT22;11432;46.924;7.114;2022-07-29T09:29:25;22.10;1.00
22532;DHT22;11432;46.924;7.114;2022-07-29T09:31:51;22.10;1.00
22532;DHT22;11432;46.924;7.114;2022-07-29T09:34:21;22.20;1.00
22532;DHT22;11432;46.924;7.114;2022-07-29T09:36:48;22.10;1.00
22532;DHT22;11432;46.924;7.114;2022-07-29T09:39:14;22.00;1.00
22532;DHT22;11432;46.924;7.114;2022-07-29T09:41:50;22.10;1.00
22532;DHT22;11432;46.924;7.114;2022-07-29T09:44:18;22.20;1.00
22532;DHT22;11432;46.924;7.114;2022-07-29T09:52:15;22.40;1.00
22532;DHT22;11432;46.924;7.114;2022-07-29T09:54:41;22.60;1.00
22532;DHT22;11432;46.924;7.114;2022-07-29T09:57:07;22.80;1.00
22532;DHT22;11432;46.924;7.114;2022-07-29T09:59:34;22.90;1.00
22532;DHT22;11432;46.924;7.114;2022-07-29T10:02:00;23.00;1.00
22532;DHT22;11432;46.924;7.114;2022-07-29T10:04:38;23.10;1.00
22532;DHT22;11432;46.924;7.114;2022-07-29T10:07:04;22.90;1.00
22532;DHT22;11432;46.924;7.114;2022-07-29T10:09:30;23.30;1.00
22532;DHT22;11432;46.924;7.114;2022-07-29T10:12:06;23.70;1.00
22532;DHT22;11432;46.924;7.114;2022-07-29T10:14:31;23.70;1.00
22532;DHT22;11432;46.924;7.114;2022-07-29T10:16:59;23.40;1.00
22532;DHT22;11432;46.924;7.114;2022-07-29T10:19:26;23.30;1.00
22532;DHT22;11432;46.924;7.114;2022-07-29T10:21:53;23.00;1.00
22532;DHT22;11432;46.924;7.114;2022-07-29T10:24:18;23.00;1.00
22532;DHT22;11432;46.924;7.114;2022-07-29T10:26:44;23.00;1.00
22532;DHT22;11432;46.924;7.114;2022-07-29T10:29:12;23.20;1.00
22532;DHT22;11432;46.924;7.114;2022-07-29T10:31:47;23.30;1.00
22532;DHT22;11432;46.924;7.114;2022-07-29T10:34:28;23.30;1.00
22532;DHT22;11432;46.924;7.114;2022-07-29T10:42:21;23.70;1.00
22532;DHT22;11432;46.924;7.114;2022-07-29T10:44:49;23.60;1.00
22532;DHT22;11432;46.924;7.114;2022-07-29T10:47:22;23.60;1.00
22532;DHT22;11432;46.924;7.114;2022-07-29T10:49:57;23.30;1.00
22532;DHT22;11432;46.924;7.114;2022-07-29T10:52:23;23.30;1.00
22532;DHT22;11432;46.924;7.114;2022-07-29T10:54:52;23.50;1.00
22532;DHT22;11432;46.924;7.114;2022-07-29T11:05:00;23.50;1.00
22532;DHT22;11432;46.924;7.114;2022-07-29T11:07:26;23.50;1.00
22532;DHT22;11432;46.924;7.114;2022-07-29T11:15:10;23.50;1.00
22532;DHT22;11432;46.924;7.114;2022-07-29T11:28:41;23.10;1.00
22532;DHT22;11432;46.924;7.114;2022-07-29T11:31:13;23.10;1.00
22532;DHT22;11432;46.924;7.114;2022-07-29T11:33:38;23.00;1.00
22532;DHT22;11432;46.924;7.114;2022-07-29T11:36:12;22.90;1.00
22532;DHT22;11432;46.924;7.114;2022-07-29T11:38:38;22.90;1.00
22532;DHT22;11432;46.924;7.114;2022-07-29T11:41:19;22.90;1.00
22532;DHT22;11432;46.924;7.114;2022-07-29T11:46:18;22.80;1.00
22532;DHT22;11432;46.924;7.114;2022-07-29T11:49:02;22.90;1.00
22532;DHT22;11432;46.924;7.114;2022-07-29T11:51:27;22.90;1.00
22532;DHT22;11432;46.924;7.114;2022-07-29T11:53:53;22.90;1.00
22532;DHT22;11432;46.924;7.114;2022-07-29T11:56:20;22.90;1.00
22532;DHT22;11432;46.924;7.114;2022-07-29T11:58:46;22.90;1.00
22532;DHT22;11432;46.924;7.114;2022-07-29T12:01:15;22.80;1.00
22532;DHT22;11432;46.924;7.114;2022-07-29T12:03:42;22.80;1.00
22532;DHT22;11432;46.924;7.114;2022-07-29T12:06:11;22.70;1.00
22532;DHT22;11432;46.924;7.114;2022-07-29T12:08:39;22.70;1.00
22532;DHT22;11432;46.924;7.114;2022-07-29T12:11:14;22.50;1.00
22532;DHT22;11432;46.924;7.114;2022-07-29T12:13:40;22.40;1.00
22532;DHT22;11432;46.924;7.114;2022-07-29T12:16:05;22.10;99.90
22532;DHT22;11432;46.924;7.114;2022-07-29T12:18:31;21.90;1.00
22532;DHT22;11432;46.924;7.114;2022-07-29T12:21:00;21.80;1.00
22532;DHT22;11432;46.924;7.114;2022-07-29T12:23:29;21.70;1.00
22532;DHT22;11432;46.924;7.114;2022-07-29T12:25:54;21.70;1.00
22532;DHT22;11432;46.924;7.114;2022-07-29T12:28:20;21.50;1.00
22532;DHT22;11432;46.924;7.114;2022-07-29T12:30:50;21.40;1.00
22532;DHT22;11432;46.924;7.114;2022-07-29T12:33:17;21.20;1.00
22532;DHT22;11432;46.924;7.114;2022-07-29T12:35:44;21.10;1.00
22532;DHT22;11432;46.924;7.114;2022-07-29T12:38:10;21.00;1.00
22532;DHT22;11432;46.924;7.114;2022-07-29T12:40:36;20.80;23.80
22532;DHT22;11432;46.924;7.114;2022-07-29T12:43:16;20.60;1.00
22532;DHT22;11432;46.924;7.114;2022-07-29T12:45:43;20.40;49.90
22532;DHT22;11432;46.924;7.114;2022-07-29T12:48:08;20.30;99.90
22532;DHT22;11432;46.924;7.114;2022-07-29T12:50:51;20.10;99.90
22532;DHT22;11432;46.924;7.114;2022-07-29T12:53:17;19.90;99.90
22532;DHT22;11432;46.924;7.114;2022-07-29T12:55:43;19.80;99.90
22532;DHT22;11432;46.924;7.114;2022-07-29T12:58:10;19.60;99.90
22532;DHT22;11432;46.924;7.114;2022-07-29T13:00:36;19.40;99.90
22532;DHT22;11432;46.924;7.114;2022-07-29T13:03:01;19.30;99.90
22532;DHT22;11432;46.924;7.114;2022-07-29T13:05:40;19.00;99.90
22532;DHT22;11432;46.924;7.114;2022-07-29T13:08:13;18.90;99.90
22532;DHT22;11432;46.924;7.114;2022-07-29T13:10:38;18.80;99.90
22532;DHT22;11432;46.924;7.114;2022-07-29T13:13:05;18.80;99.90
22532;DHT22;11432;46.924;7.114;2022-07-29T13:15:32;18.70;99.90
22532;DHT22;11432;46.924;7.114;2022-07-29T13:17:57;18.90;99.90
22532;DHT22;11432;46.924;7.114;2022-07-29T13:20:23;18.90;99.90
22532;DHT22;11432;46.924;7.114;2022-07-29T13:22:49;19.00;99.90
22532;DHT22;11432;46.924;7.114;2022-07-29T13:25:22;19.10;99.90
22532;DHT22;11432;46.924;7.114;2022-07-29T13:27:48;19.30;99.90
22532;DHT22;11432;46.924;7.114;2022-07-29T13:30:14;19.30;99.90
22532;DHT22;11432;46.924;7.114;2022-07-29T13:32:39;19.40;99.90
22532;DHT22;11432;46.924;7.114;2022-07-29T13:35:05;19.50;99.90
22532;DHT22;11432;46.924;7.114;2022-07-29T13:37:32;19.50;99.90
22532;DHT22;11432;46.924;7.114;2022-07-29T13:39:59;19.50;99.90
22532;DHT22;11432;46.924;7.114;2022-07-29T13:42:25;19.60;99.90
22532;DHT22;11432;46.924;7.114;2022-07-29T13:44:51;19.70;99.90
22532;DHT22;11432;46.924;7.114;2022-07-29T13:47:20;19.80;99.90
22532;DHT22;11432;46.924;7.114;2022-07-29T13:49:46;19.70;99.90
22532;DHT22;11432;46.924;7.114;2022-07-29T13:52:12;20.00;99.90
22532;DHT22;11432;46.924;7.114;2022-07-29T13:54:37;20.20;99.90
22532;DHT22;11432;46.924;7.114;2022-07-29T13:57:05;20.40;99.90
22532;DHT22;11432;46.924;7.114;2022-07-29T13:59:31;20.40;97.40
22532;DHT22;11432;46.924;7.114;2022-07-29T14:01:57;20.40;90.00
22532;DHT22;11432;46.924;7.114;2022-07-29T14:04:22;20.30;99.90
22532;DHT22;11432;46.924;7.114;2022-07-29T14:06:51;20.50;45.40
22532;DHT22;11432;46.924;7.114;2022-07-29T14:09:16;20.40;31.60
22532;DHT22;11432;46.924;7.114;2022-07-29T14:11:42;20.50;71.90
22532;DHT22;11432;46.924;7.114;2022-07-29T14:14:07;20.70;3.60
22532;DHT22;11432;46.924;7.114;2022-07-29T14:16:33;20.80;21.60
22532;DHT22;11432;46.924;7.114;2022-07-29T14:18:59;21.10;99.70
22532;DHT22;11432;46.924;7.114;2022-07-29T14:21:24;21.30;92.00
22532;DHT22;11432;46.924;7.114;2022-07-29T14:23:50;21.40;1.00
22532;DHT22;11432;46.924;7.114;2022-07-29T14:26:17;21.60;94.80
22532;DHT22;11432;46.924;7.114;2022-07-29T14:28:42;21.80;8.60
22532;DHT22;11432;46.924;7.114;2022-07-29T14:31:08;21.80;93.70
22532;DHT22;11432;46.924;7.114;2022-07-29T14:33:34;21.90;37.90
22532;DHT22;11432;46.924;7.114;2022-07-29T14:35:59;21.80;1.00
22532;DHT22;11432;46.924;7.114;2022-07-29T14:38:25;21.80;1.00
22532;DHT22;11432;46.924;7.114;2022-07-29T14:40:50;21.90;32.20
22532;DHT22;11432;46.924;7.114;2022-07-29T14:43:16;21.70;1.00
22532;DHT22;11432;46.924;7.114;2022-07-29T14:45:41;21.70;1.00
22532;DHT22;11432;46.924;7.114;2022-07-29T14:48:07;21.80;1.00
22532;DHT22;11432;46.924;7.114;2022-07-29T14:50:33;21.90;1.00
22532;DHT22;11432;46.924;7.114;2022-07-29T14:53:02;22.90;1.00
22532;DHT22;11432;46.924;7.114;2022-07-29T14:55:27;23.60;1.00
22532;DHT22;11432;46.924;7.114;2022-07-29T14:57:53;24.30;1.00
22532;DHT22;11432;46.924;7.114;2022-07-29T15:00:19;24.20;1.00
22532;DHT22;11432;46.924;7.114;2022-07-29T15:02:46;23.90;1.00
22532;DHT22;11432;46.924;7.114;2022-07-29T15:05:11;23.80;1.00
22532;DHT22;11432;46.924;7.114;2022-07-29T15:07:37;23.80;1.00
22532;DHT22;11432;46.924;7.114;2022-07-29T15:10:03;26.20;1.00
22532;DHT22;11432;46.924;7.114;2022-07-29T15:12:29;27.50;99.90
22532;DHT22;11432;46.924;7.114;2022-07-29T15:14:55;26.50;1.00
22532;DHT22;11432;46.924;7.114;2022-07-29T15:17:21;26.50;99.90
22532;DHT22;11432;46.924;7.114;2022-07-29T15:19:46;25.40;1.00
22532;DHT22;11432;46.924;7.114;2022-07-29T15:22:12;24.90;1.00
22532;DHT22;11432;46.924;7.114;2022-07-29T15:24:37;23.90;1.00
22532;DHT22;11432;46.924;7.114;2022-07-29T15:27:03;23.50;1.00
22532;DHT22;11432;46.924;7.114;2022-07-29T15:29:28;24.30;1.00
22532;DHT22;11432;46.924;7.114;2022-07-29T15:31:54;25.00;1.00
22532;DHT22;11432;46.924;7.114;2022-07-29T15:34:19;26.10;99.90
22532;DHT22;11432;46.924;7.114;2022-07-29T15:36:46;25.40;99.90
22532;DHT22;11432;46.924;7.114;2022-07-29T15:39:11;24.40;1.00
22532;DHT22;11432;46.924;7.114;2022-07-29T15:41:37;24.00;1.00
22532;DHT22;11432;46.924;7.114;2022-07-29T15:44:02;24.70;1.00
22532;DHT22;11432;46.924;7.114;2022-07-29T15:46:28;24.20;1.00
22532;DHT22;11432;46.924;7.114;2022-07-29T15:49:12;24.40;1.00
22532;DHT22;11432;46.924;7.114;2022-07-29T15:51:37;23.70;1.00
22532;DHT22;11432;46.924;7.114;2022-07-29T15:54:03;23.90;1.00
22532;DHT22;11432;46.924;7.114;2022-07-29T15:56:29;23.80;1.00
22532;DHT22;11432;46.924;7.114;2022-07-29T15:58:55;23.70;1.00
22532;DHT22;11432;46.924;7.114;2022-07-29T16:01:20;24.30;1.00
22532;DHT22;11432;46.924;7.114;2022-07-29T16:03:46;25.90;1.00
22532;DHT22;11432;46.924;7.114;2022-07-29T16:06:12;27.10;99.90
22532;DHT22;11432;46.924;7.114;2022-07-29T16:08:37;27.50;99.90
22532;DHT22;11432;46.924;7.114;2022-07-29T16:11:03;26.60;99.90
22532;DHT22;11432;46.924;7.114;2022-07-29T16:13:28;26.10;99.90
22532;DHT22;11432;46.924;7.114;2022-07-29T16:15:54;26.10;99.90
22532;DHT22;11432;46.924;7.114;2022-07-29T16:18:19;27.20;99.90
22532;DHT22;11432;46.924;7.114;2022-07-29T16:20:45;27.20;99.90
22532;DHT22;11432;46.924;7.114;2022-07-29T16:23:10;26.80;99.90
22532;DHT22;11432;46.924;7.114;2022-07-29T16:25:39;26.00;99.90
22532;DHT22;11432;46.924;7.114;2022-07-29T16:28:06;25.80;99.90
22532;DHT22;11432;46.924;7.114;2022-07-29T16:30:32;25.20;99.90
22532;DHT22;11432;46.924;7.114;2022-07-29T16:32:58;24.50;99.90